createdAt,value
2019-04-10T00:04:35.675Z,2.52
2019-04-10T00:09:59.304Z,2.23
2019-04-10T00:15:24.326Z,1.94
2019-04-10T00:20:49.120Z,1.82
2019-04-10T00:26:13.908Z,1.69
2019-04-10T00:31:38.162Z,1.55
2019-04-10T00:37:02.395Z,1.43
2019-04-10T00:42:27.568Z,1.40
2019-04-10T00:47:51.192Z,1.38
2019-04-10T00:53:16.908Z,1.39
2019-04-10T00:58:41.523Z,1.22
2019-04-10T01:04:06.854Z,1.22
2019-04-10T01:09:31.154Z,1.25
2019-04-10T01:14:54.479Z,1.09
2019-04-10T01:20:19.606Z,1.04
2019-04-10T01:25:43.183Z,0.94
2019-04-10T01:31:07.692Z,0.90
2019-04-10T01:36:31.844Z,0.80
2019-04-10T01:41:56.475Z,0.79
2019-04-10T01:47:21.344Z,0.69
2019-04-10T01:52:47.060Z,0.64
2019-04-10T01:58:17.574Z,0.55
2019-04-10T02:03:42.436Z,0.68
2019-04-10T02:09:10.960Z,0.63
2019-04-10T02:14:36.351Z,0.60
2019-04-10T02:20:00.928Z,0.63
2019-04-10T02:25:25.368Z,0.72
2019-04-10T02:30:50.185Z,0.80
2019-04-10T02:36:14.607Z,0.78
2019-04-10T02:41:38.793Z,0.64
2019-04-10T02:47:04.199Z,0.55
2019-04-10T02:52:28.603Z,0.49
2019-04-10T02:57:54.269Z,0.49
2019-04-10T03:03:20.089Z,0.45
2019-04-10T03:09:05.917Z,0.55
2019-04-10T03:14:10.620Z,0.55
2019-04-10T03:19:34.128Z,0.69
2019-04-10T03:24:58.495Z,0.69
2019-04-10T03:30:23.655Z,0.88
2019-04-10T03:35:51.472Z,1.05
2019-04-10T03:41:15.962Z,1.20
2019-04-10T03:46:40.311Z,1.37
2019-04-10T03:52:05.141Z,1.51
2019-04-10T03:57:29.596Z,1.63
2019-04-10T04:02:53.868Z,1.71
2019-04-10T04:08:17.916Z,1.69
2019-04-10T04:13:42.143Z,1.67
2019-04-10T04:19:06.003Z,1.62
2019-04-10T04:24:30.171Z,1.58
2019-04-10T04:29:54.139Z,1.57
2019-04-10T04:35:18.634Z,1.61
2019-04-10T04:40:44.250Z,1.68
2019-04-10T04:46:08.139Z,1.71
2019-04-10T04:51:33.055Z,1.79
2019-04-10T04:56:56.728Z,1.88
2019-04-10T05:02:20.243Z,2.01
2019-04-10T05:07:55.544Z,2.15
2019-04-10T05:13:10.355Z,2.35
2019-04-10T05:18:35.107Z,2.50
2019-04-10T05:23:59.653Z,2.67
2019-04-10T05:29:24.971Z,2.82
2019-04-10T05:34:50.381Z,2.91
2019-04-10T05:40:13.891Z,2.97
2019-04-10T05:45:38.383Z,3.09
2019-04-10T05:51:05.645Z,3.65
2019-04-10T05:56:28.583Z,3.68
2019-04-10T06:01:52.739Z,3.75
2019-04-10T06:07:17.027Z,3.73
2019-04-10T06:12:40.920Z,3.64
2019-04-10T06:18:05.039Z,3.51
2019-04-10T06:23:29.653Z,3.48
2019-04-10T06:28:54.740Z,3.66
2019-04-10T06:34:20.473Z,4.26
2019-04-10T06:39:44.995Z,4.34
2019-04-10T06:45:11.429Z,4.65
2019-04-10T06:50:37.044Z,4.84
2019-04-10T06:56:01.455Z,5.39
2019-04-10T07:01:33.619Z,5.16
2019-04-10T07:06:59.755Z,5.68
2019-04-10T07:12:16.458Z,5.62
2019-04-10T07:17:41.888Z,5.82
2019-04-10T07:23:06.988Z,6.67
2019-04-10T07:28:30.418Z,7.65
2019-04-10T07:33:54.915Z,7.26
2019-04-10T07:39:18.513Z,7.98
2019-04-10T07:44:43.027Z,8.17
2019-04-10T07:50:08.799Z,7.28
2019-04-10T07:55:33.164Z,7.55
2019-04-10T08:00:57.324Z,7.86
2019-04-10T08:06:22.054Z,7.53
2019-04-10T08:11:47.129Z,7.43
2019-04-10T08:17:10.530Z,7.75
2019-04-10T08:22:35.032Z,8.13
2019-04-10T08:27:58.604Z,8.41
2019-04-10T08:33:21.986Z,9.20
2019-04-10T08:38:46.699Z,8.60
2019-04-10T08:44:10.758Z,8.40
2019-04-10T08:49:34.769Z,8.97
2019-04-10T08:54:59.611Z,8.60
2019-04-10T09:00:24.799Z,9.67
2019-04-10T09:05:49.072Z,10.43
2019-04-10T09:11:12.843Z,11.22
2019-04-10T09:16:38.434Z,13.08
2019-04-10T09:22:03.854Z,13.36
2019-04-10T09:27:28.964Z,14.83
2019-04-10T09:32:52.844Z,15.31
2019-04-10T09:38:16.795Z,16.14
2019-04-10T09:43:40.126Z,15.26
2019-04-10T09:49:05.428Z,14.90
2019-04-10T09:54:28.770Z,15.20
2019-04-10T09:59:52.898Z,13.61
2019-04-10T10:05:18.181Z,15.68
2019-04-10T10:10:42.666Z,15.62
2019-04-10T10:16:06.522Z,13.94
2019-04-10T10:21:30.580Z,12.65
2019-04-10T10:26:55.631Z,12.38
2019-04-10T10:32:19.227Z,12.36
2019-04-10T10:37:42.899Z,14.03
2019-04-10T10:43:06.461Z,11.75
2019-04-10T10:48:31.563Z,12.55
2019-04-10T10:53:56.660Z,11.98
2019-04-10T10:59:21.828Z,12.97
2019-04-10T11:04:45.402Z,15.43
2019-04-10T11:10:09.812Z,16.87
2019-04-10T11:15:34.185Z,15.65
2019-04-10T11:21:04.097Z,14.36
2019-04-10T11:26:25.575Z,15.20
2019-04-10T11:31:50.121Z,13.46
2019-04-10T11:37:24.189Z,13.50
2019-04-10T11:42:39.921Z,13.04
2019-04-10T11:48:05.865Z,15.21
2019-04-10T11:53:32.693Z,13.68
2019-04-10T11:58:57.599Z,13.38
2019-04-10T12:04:23.247Z,16.06
2019-04-10T12:15:12.327Z,16.22
2019-04-10T12:20:37.497Z,14.13
2019-04-10T12:26:01.697Z,15.45
2019-04-10T12:31:26.079Z,16.67
2019-04-10T12:36:51.795Z,15.07
2019-04-10T12:42:16.492Z,13.17
2019-04-10T12:47:41.978Z,14.04
2019-04-10T12:53:07.422Z,12.12
2019-04-10T12:58:30.971Z,13.12
2019-04-10T13:03:55.733Z,15.14
2019-04-10T13:09:20.117Z,17.01
2019-04-10T13:14:44.280Z,16.43
2019-04-10T13:20:10.582Z,16.97
2019-04-10T13:25:34.510Z,14.93
2019-04-10T13:30:59.595Z,12.76
2019-04-10T13:36:23.859Z,12.64
2019-04-10T13:41:48.417Z,15.30
2019-04-10T13:47:13.390Z,15.92
2019-04-10T13:52:40.465Z,13.94
2019-04-10T13:58:04.160Z,12.77
2019-04-10T14:03:30.149Z,11.55
2019-04-10T14:09:08.182Z,13.32
2019-04-10T14:14:20.366Z,15.92
2019-04-10T14:19:45.699Z,12.00
2019-04-10T14:25:19.778Z,10.85
2019-04-10T14:30:43.683Z,12.05
2019-04-10T14:36:08.138Z,12.99
2019-04-10T14:41:32.306Z,13.45
2019-04-10T14:46:56.335Z,12.79
2019-04-10T14:52:21.802Z,11.18
2019-04-10T14:57:47.317Z,11.17
2019-04-10T15:03:11.922Z,11.83
2019-04-10T15:08:36.260Z,12.11
2019-04-10T15:14:01.299Z,13.04
2019-04-10T15:19:26.882Z,13.71
2019-04-10T15:24:51.876Z,13.14
2019-04-10T15:30:16.643Z,12.60
2019-04-10T15:35:41.555Z,12.35
2019-04-10T15:41:06.440Z,12.65
2019-04-10T15:46:30.406Z,12.39
2019-04-10T15:51:55.224Z,11.97
2019-04-10T15:57:22.837Z,11.58
2019-04-10T16:02:46.904Z,10.14
2019-04-10T16:08:12.149Z,9.98
2019-04-10T16:13:41.375Z,9.61
2019-04-10T16:19:15.106Z,9.61
2019-04-10T16:24:38.858Z,9.45
2019-04-10T16:30:03.756Z,9.46
2019-04-10T16:35:27.467Z,9.43
2019-04-10T16:40:52.079Z,9.58
2019-04-10T16:46:17.314Z,9.54
2019-04-10T16:51:41.115Z,10.03
2019-04-10T16:57:05.343Z,10.49
2019-04-10T17:02:29.877Z,10.54
2019-04-10T17:07:53.333Z,9.45
2019-04-10T17:13:18.300Z,9.07
2019-04-10T17:18:43.427Z,8.86
2019-04-10T17:24:09.189Z,8.68
2019-04-10T17:29:33.444Z,8.36
2019-04-10T17:34:57.214Z,8.04
2019-04-10T17:40:30.659Z,7.82
2019-04-10T17:45:46.915Z,7.60
2019-04-10T17:51:12.121Z,7.38
2019-04-10T17:56:36.151Z,7.24
2019-04-10T18:02:02.212Z,7.18
2019-04-10T18:07:26.042Z,7.18
2019-04-10T18:12:50.395Z,7.23
2019-04-10T18:18:15.761Z,7.24
2019-04-10T18:23:40.386Z,7.15
2019-04-10T18:29:05.966Z,7.03
2019-04-10T18:34:29.628Z,6.96
2019-04-10T18:39:53.266Z,6.90
2019-04-10T18:45:17.607Z,6.81
2019-04-10T18:50:41.890Z,6.72
2019-04-10T18:56:05.629Z,6.63
2019-04-10T19:01:43.239Z,6.51
2019-04-10T19:07:07.057Z,6.41
2019-04-10T19:12:32.747Z,6.32
2019-04-10T19:17:57.554Z,6.27
2019-04-10T19:23:22.723Z,6.25
2019-04-10T19:28:46.682Z,6.16
2019-04-10T19:34:10.497Z,6.18
2019-04-10T19:39:34.650Z,6.19
2019-04-10T19:44:59.443Z,6.16
2019-04-10T19:50:25.469Z,6.06
2019-04-10T19:55:50.143Z,5.89
2019-04-10T20:01:14.564Z,5.75
2019-04-10T20:06:39.093Z,5.71
2019-04-10T20:12:04.338Z,5.66
2019-04-10T20:17:28.656Z,5.57
2019-04-10T20:22:52.144Z,5.50
2019-04-10T20:28:16.829Z,5.39
2019-04-10T20:33:41.058Z,5.41
2019-04-10T20:39:07.815Z,5.44
2019-04-10T20:44:32.616Z,5.43
2019-04-10T20:49:56.616Z,5.32
2019-04-10T20:55:20.289Z,5.23
2019-04-10T21:00:44.984Z,5.20
2019-04-10T21:06:09.498Z,5.11
2019-04-10T21:11:33.369Z,4.98
2019-04-10T21:16:58.214Z,4.90
2019-04-10T21:22:22.407Z,4.85
2019-04-10T21:27:49.223Z,4.72
2019-04-10T21:33:30.233Z,4.51
2019-04-10T21:38:54.839Z,4.46
2019-04-10T21:44:19.016Z,4.45
2019-04-10T21:49:42.601Z,4.52
2019-04-10T21:55:07.169Z,4.62
2019-04-10T22:00:51.235Z,4.62
2019-04-10T22:06:31.626Z,4.59
2019-04-10T22:11:57.294Z,4.57
2019-04-10T22:17:22.626Z,4.61
2019-04-10T22:22:47.113Z,4.60
2019-04-10T22:28:11.271Z,4.57
2019-04-10T22:33:34.780Z,4.52
2019-04-10T22:38:58.951Z,4.44
2019-04-10T22:44:33.718Z,4.41
2019-04-10T22:49:48.582Z,4.27
2019-04-10T22:55:12.302Z,4.23
2019-04-10T23:00:37.633Z,4.20
2019-04-10T23:06:02.024Z,4.14
2019-04-10T23:11:33.435Z,4.10
2019-04-10T23:16:52.564Z,4.07
2019-04-10T23:22:16.941Z,3.92
2019-04-10T23:27:41.947Z,3.83
2019-04-10T23:33:06.104Z,3.82
2019-04-10T23:38:29.883Z,3.79
2019-04-10T23:43:54.191Z,3.73
2019-04-10T23:49:17.688Z,3.72
2019-04-10T23:54:42.164Z,3.63
